Time;durP1;ratioP1;P1;durP2;ratioP2;P2;SDS_P1;SDS_P2;PMS_P1;PMS_P2;Temp;Humidity;BMP_temperature;BMP_pressure;BME280_temperature;BME280_humidity;BME280_pressure;Samples;Min_cycle;Max_cycle;Signal;HPM_P1;HPM_P2
2023/09/19 00:01:32;;;;;;;11.93;6.55;;;22.90;99.90;;;;;;5054305;28;20079;-73
2023/09/19 00:03:58;;;;;;;11.38;6.55;;;22.90;99.90;;;;;;5054208;28;20102;-72
2023/09/19 00:06:25;;;;;;;12.75;6.60;;;23.10;99.90;;;;;;5054363;28;20483;-72
2023/09/19 00:08:53;;;;;;;10.85;6.07;;;22.70;99.90;;;;;;5054464;28;20087;-71
2023/09/19 00:11:18;;;;;;;11.70;6.32;;;22.70;99.90;;;;;;5049469;28;20087;-74
2023/09/19 00:13:49;;;;;;;11.30;6.28;;;22.70;99.90;;;;;;5054347;28;20033;-73
2023/09/19 00:16:15;;;;;;;10.10;6.38;;;22.70;99.90;;;;;;5053637;28;20021;-72
2023/09/19 00:18:42;;;;;;;11.65;6.38;;;22.70;99.90;;;;;;5054631;28;20036;-74
2023/09/19 00:21:10;;;;;;;12.40;6.50;;;22.70;99.90;;;;;;5054204;28;20040;-74
2023/09/19 00:23:35;;;;;;;11.63;6.75;;;22.70;99.90;;;;;;5053982;28;20554;-74
2023/09/19 00:26:02;;;;;;;16.52;6.88;;;22.70;99.90;;;;;;5036647;28;20060;-72
2023/09/19 00:28:29;;;;;;;14.07;6.85;;;22.70;99.90;;;;;;5032580;28;20057;-72
2023/09/19 00:30:55;;;;;;;14.15;6.30;;;22.70;99.90;;;;;;5032318;28;20045;-73
2023/09/19 00:33:24;;;;;;;10.90;6.90;;;22.70;99.90;;;;;;5031548;28;20057;-73
2023/09/19 00:35:54;;;;;;;11.45;6.82;;;22.70;99.90;;;;;;5032241;28;20025;-71
2023/09/19 00:38:22;;;;;;;13.50;5.95;;;22.80;99.90;;;;;;5028550;28;20051;-72
2023/09/19 00:40:51;;;;;;;11.05;6.15;;;22.70;99.90;;;;;;5028358;28;20028;-73
2023/09/19 00:43:17;;;;;;;20.42;6.45;;;22.80;99.90;;;;;;5063640;28;20060;-72
2023/09/19 00:45:45;;;;;;;10.98;6.20;;;22.80;99.90;;;;;;5064229;28;20108;-72
2023/09/19 00:48:11;;;;;;;10.50;5.57;;;22.80;99.90;;;;;;5059663;28;20026;-74
2023/09/19 00:50:41;;;;;;;11.90;6.70;;;22.80;99.90;;;;;;5029958;28;20048;-72
2023/09/19 00:53:13;;;;;;;14.80;6.60;;;22.80;99.90;;;;;;5031075;28;20114;-72
2023/09/19 00:55:40;;;;;;;12.50;6.97;;;22.80;99.90;;;;;;5028068;28;20037;-73
2023/09/19 00:58:06;;;;;;;23.20;6.70;;;22.80;99.90;;;;;;5032110;28;20041;-74
2023/09/19 01:00:34;;;;;;;11.38;5.70;;;22.80;99.90;;;;;;5029132;28;20550;-72
2023/09/19 01:03:03;;;;;;;11.65;6.43;;;22.80;99.90;;;;;;5031000;28;20040;-71
2023/09/19 01:05:29;;;;;;;13.40;6.47;;;22.70;99.90;;;;;;5031490;28;20112;-71
2023/09/19 01:07:56;;;;;;;10.68;5.70;;;22.70;99.90;;;;;;5064130;28;20120;-71
2023/09/19 01:10:22;;;;;;;11.02;6.07;;;22.80;99.90;;;;;;5026249;28;20075;-72
2023/09/19 01:13:21;;;;;;;10.13;5.70;;;22.70;99.90;;;;;;5029546;28;20025;-72
2023/09/19 01:15:47;;;;;;;10.10;6.00;;;22.80;99.90;;;;;;4999000;28;20030;-72
2023/09/19 01:18:51;;;;;;;9.15;4.95;;;22.70;99.90;;;;;;5015079;28;20543;-72
2023/09/19 01:21:25;;;;;;;12.77;5.68;;;22.80;99.90;;;;;;4992119;28;20026;-74
2023/09/19 01:24:05;;;;;;;11.57;5.70;;;22.80;99.90;;;;;;4989782;28;20096;-71
2023/09/19 01:27:28;;;;;;;11.52;5.80;;;22.80;99.90;;;;;;4985463;28;20042;-71
2023/09/19 01:30:08;;;;;;;9.40;4.97;;;22.80;99.90;;;;;;4931614;29;20150;-71
2023/09/19 01:32:37;;;;;;;10.85;5.43;;;22.70;99.90;;;;;;4931939;28;21129;-71
2023/09/19 01:35:04;;;;;;;24.70;7.55;;;22.80;99.90;;;;;;4932254;29;20067;-73
2023/09/19 01:37:31;;;;;;;12.57;6.10;;;22.70;99.90;;;;;;4933595;29;20046;-73
2023/09/19 01:40:20;;;;;;;12.25;6.03;;;22.60;99.90;;;;;;4933016;29;20119;-72
2023/09/19 01:42:59;;;;;;;9.63;6.03;;;22.40;99.90;;;;;;4917016;29;20047;-72
2023/09/19 01:45:50;;;;;;;13.55;6.10;;;22.30;99.90;;;;;;4945248;29;20035;-74
2023/09/19 01:48:49;;;;;;;14.80;6.53;;;22.20;99.90;;;;;;4932944;29;20042;-73
2023/09/19 01:51:32;;;;;;;11.07;6.05;;;22.20;99.90;;;;;;4890278;29;20555;-71
2023/09/19 01:54:10;;;;;;;13.32;6.90;;;22.10;99.90;;;;;;4857692;29;20508;-72
2023/09/19 01:56:50;;;;;;;11.20;6.22;;;22.10;99.90;;;;;;4882258;29;20041;-72
2023/09/19 01:59:24;;;;;;;11.35;6.53;;;22.10;99.90;;;;;;4895687;29;20562;-73
2023/09/19 02:01:51;;;;;;;15.25;6.07;;;22.10;99.90;;;;;;4952123;29;20114;-74
2023/09/19 02:04:17;;;;;;;9.35;5.72;;;22.10;99.90;;;;;;4952230;29;20039;-73
2023/09/19 02:06:47;;;;;;;10.70;5.93;;;22.10;99.90;;;;;;4936431;28;20593;-74
2023/09/19 02:09:14;;;;;;;12.75;6.72;;;22.20;99.90;;;;;;4952151;29;20031;-72
2023/09/19 02:11:41;;;;;;;12.93;6.28;;;22.20;99.90;;;;;;4935612;29;20043;-73
2023/09/19 02:14:08;;;;;;;9.95;6.07;;;22.40;99.90;;;;;;4968113;28;20040;-71
2023/09/19 02:16:34;;;;;;;10.00;5.55;;;22.20;99.90;;;;;;4951852;29;20031;-73
2023/09/19 02:19:00;;;;;;;10.35;5.97;;;22.60;99.90;;;;;;4968227;28;20039;-72
2023/09/19 02:21:29;;;;;;;10.57;5.90;;;22.30;99.90;;;;;;4935660;28;20045;-72
2023/09/19 02:23:56;;;;;;;11.38;6.15;;;22.30;99.90;;;;;;4967919;28;20129;-72
2023/09/19 02:26:24;;;;;;;17.80;6.38;;;22.30;99.90;;;;;;4971515;28;20042;-71
2023/09/19 02:28:50;;;;;;;10.80;6.10;;;22.30;99.90;;;;;;5039731;28;20094;-72
2023/09/19 02:31:16;;;;;;;12.27;6.10;;;22.30;99.90;;;;;;5052181;28;20049;-72
2023/09/19 02:33:43;;;;;;;12.00;7.00;;;22.30;99.90;;;;;;5051540;28;20033;-71
2023/09/19 02:36:09;;;;;;;14.45;7.18;;;22.30;99.90;;;;;;5051997;28;20013;-73
2023/09/19 02:38:35;;;;;;;12.40;6.38;;;22.30;99.90;;;;;;5051545;28;20094;-72
2023/09/19 02:41:03;;;;;;;11.75;5.97;;;22.20;99.90;;;;;;5051885;28;20037;-74
2023/09/19 02:43:29;;;;;;;9.65;6.03;;;22.20;99.90;;;;;;5051075;28;20057;-72
2023/09/19 02:45:54;;;;;;;10.98;6.13;;;22.20;99.90;;;;;;5050173;28;20499;-74
2023/09/19 02:48:21;;;;;;;8.75;5.25;;;22.20;99.90;;;;;;5050448;28;20025;-71
2023/09/19 02:50:50;;;;;;;11.48;6.55;;;22.20;99.90;;;;;;5050132;28;20021;-72
2023/09/19 02:53:16;;;;;;;11.43;6.05;;;22.20;99.90;;;;;;5050436;28;20021;-71
2023/09/19 02:55:42;;;;;;;18.63;6.75;;;22.20;99.90;;;;;;5051829;28;20040;-72
2023/09/19 02:58:11;;;;;;;13.02;7.28;;;22.20;99.90;;;;;;5051282;28;20021;-71
2023/09/19 03:00:37;;;;;;;11.15;6.70;;;22.20;99.90;;;;;;5049793;28;20812;-71
2023/09/19 03:03:05;;;;;;;14.90;6.68;;;22.20;99.90;;;;;;5031942;28;20120;-71
2023/09/19 03:05:32;;;;;;;10.52;6.53;;;22.10;99.90;;;;;;5047702;28;20025;-71
2023/09/19 03:08:00;;;;;;;14.25;6.57;;;22.10;99.90;;;;;;5046429;28;20060;-73
2023/09/19 03:10:27;;;;;;;14.65;6.13;;;22.10;99.90;;;;;;5042611;28;20057;-73
2023/09/19 03:12:54;;;;;;;11.95;7.03;;;22.10;99.90;;;;;;5072335;28;20044;-72
2023/09/19 03:15:21;;;;;;;12.10;6.75;;;22.20;99.90;;;;;;5039773;28;20067;-73
2023/09/19 03:17:49;;;;;;;12.18;5.95;;;22.20;99.90;;;;;;5038019;28;20025;-71
2023/09/19 03:20:20;;;;;;;10.55;5.97;;;22.20;99.90;;;;;;5049754;28;20025;-72
2023/09/19 03:22:48;;;;;;;9.18;4.88;;;22.20;99.90;;;;;;5050123;28;20116;-73
2023/09/19 03:25:15;;;;;;;13.00;5.50;;;22.30;99.90;;;;;;5045583;28;20021;-74
2023/09/19 03:27:43;;;;;;;11.13;5.60;;;22.30;99.90;;;;;;5050281;28;20029;-71
2023/09/19 03:30:13;;;;;;;10.52;6.00;;;22.30;99.90;;;;;;5049719;28;20033;-72
2023/09/19 03:32:47;;;;;;;13.55;5.95;;;22.30;99.90;;;;;;5049926;28;20044;-74
2023/09/19 03:35:14;;;;;;;10.23;5.18;;;22.30;99.90;;;;;;5049681;28;20036;-72
2023/09/19 03:37:44;;;;;;;10.30;6.15;;;22.30;99.90;;;;;;5050474;28;20080;-72
2023/09/19 03:40:11;;;;;;;11.98;6.43;;;22.30;99.90;;;;;;5049317;28;20029;-73
2023/09/19 03:42:41;;;;;;;12.32;6.35;;;22.30;99.90;;;;;;5050623;28;20037;-74
2023/09/19 03:45:15;;;;;;;10.20;5.75;;;22.30;99.90;;;;;;5049930;28;20037;-72
2023/09/19 03:47:52;;;;;;;11.05;5.85;;;22.40;99.90;;;;;;5050854;28;20025;-71
2023/09/19 03:50:20;;;;;;;13.68;6.18;;;22.40;99.90;;;;;;5050967;28;20033;-72
2023/09/19 03:52:46;;;;;;;8.55;5.82;;;22.40;99.90;;;;;;5050178;28;20116;-73
2023/09/19 03:55:13;;;;;;;10.48;5.88;;;22.30;99.90;;;;;;5034406;28;20064;-74
2023/09/19 03:57:40;;;;;;;9.32;5.53;;;22.20;99.90;;;;;;5053273;28;20024;-72
2023/09/19 04:00:11;;;;;;;11.10;6.13;;;22.20;99.90;;;;;;5053346;28;20498;-72
2023/09/19 04:02:41;;;;;;;11.18;5.78;;;22.20;99.90;;;;;;5047362;28;20041;-71
2023/09/19 04:05:07;;;;;;;14.77;6.47;;;22.00;99.90;;;;;;5032337;28;20025;-71
2023/09/19 04:07:34;;;;;;;15.25;6.68;;;21.90;99.90;;;;;;5033320;28;20025;-71
2023/09/19 04:10:00;;;;;;;12.60;5.68;;;21.90;99.90;;;;;;5034625;28;20068;-71
2023/09/19 04:12:27;;;;;;;14.70;6.35;;;21.80;99.90;;;;;;5035141;28;20034;-72
2023/09/19 04:14:53;;;;;;;10.50;6.50;;;21.90;99.90;;;;;;5043761;28;20074;-74
2023/09/19 04:17:18;;;;;;;12.73;6.53;;;21.70;99.90;;;;;;5044490;28;20036;-72
2023/09/19 04:19:45;;;;;;;11.68;6.63;;;21.60;99.90;;;;;;5036926;28;20030;-71
2023/09/19 04:22:12;;;;;;;14.27;6.97;;;21.70;99.90;;;;;;5042313;28;20037;-71
2023/09/19 04:24:38;;;;;;;10.90;6.00;;;21.60;99.90;;;;;;5052994;28;20040;-73
2023/09/19 04:27:05;;;;;;;15.80;6.38;;;21.60;99.90;;;;;;5052647;28;20485;-71
2023/09/19 04:29:31;;;;;;;15.10;8.10;;;21.70;99.90;;;;;;5037801;28;20037;-70
2023/09/19 04:31:57;;;;;;;16.67;6.45;;;21.70;99.90;;;;;;5044804;28;20060;-72
2023/09/19 04:34:24;;;;;;;15.27;6.15;;;21.50;99.90;;;;;;5053859;28;20045;-72
2023/09/19 04:36:50;;;;;;;13.35;6.60;;;21.60;99.90;;;;;;5052596;28;20079;-72
2023/09/19 04:39:16;;;;;;;12.02;5.95;;;21.40;99.90;;;;;;5051140;28;20057;-72
2023/09/19 04:41:42;;;;;;;12.10;7.22;;;21.40;99.90;;;;;;5047691;28;20029;-72
2023/09/19 04:44:08;;;;;;;12.60;7.20;;;21.50;99.90;;;;;;5041338;28;20481;-72
2023/09/19 04:46:35;;;;;;;10.05;6.22;;;21.50;99.90;;;;;;5045191;28;20049;-72
2023/09/19 04:49:01;;;;;;;9.90;6.20;;;21.30;99.90;;;;;;5051839;28;20031;-72
2023/09/19 04:51:30;;;;;;;17.52;6.20;;;21.40;99.90;;;;;;5043645;28;20037;-73
2023/09/19 04:53:56;;;;;;;14.27;6.18;;;21.40;99.90;;;;;;5052276;28;20437;-72
2023/09/19 04:56:23;;;;;;;12.20;6.93;;;21.30;99.90;;;;;;5052481;28;20068;-74
2023/09/19 04:58:48;;;;;;;10.02;6.60;;;21.30;99.90;;;;;;5044659;28;20052;-73
2023/09/19 05:01:16;;;;;;;14.52;7.18;;;21.30;99.90;;;;;;5048448;28;20057;-73
2023/09/19 05:03:42;;;;;;;11.02;6.53;;;21.30;99.90;;;;;;5036694;28;20043;-72
2023/09/19 05:06:08;;;;;;;11.43;6.65;;;21.30;99.90;;;;;;5046278;28;20025;-72
2023/09/19 05:08:33;;;;;;;11.27;6.93;;;21.40;99.90;;;;;;5053532;28;20039;-72
2023/09/19 05:11:02;;;;;;;14.07;6.53;;;21.50;99.90;;;;;;5053264;28;20036;-73
2023/09/19 05:13:28;;;;;;;11.43;7.05;;;21.50;99.90;;;;;;5053411;28;20039;-72
2023/09/19 05:15:54;;;;;;;15.52;6.38;;;21.80;99.90;;;;;;5046340;28;20021;-72
2023/09/19 05:18:19;;;;;;;17.00;6.82;;;21.80;99.90;;;;;;5037847;28;20036;-72
2023/09/19 05:20:45;;;;;;;11.32;6.68;;;21.60;99.90;;;;;;5036624;28;20040;-72
2023/09/19 05:23:12;;;;;;;14.70;6.75;;;21.60;99.90;;;;;;5038311;28;20037;-72
2023/09/19 05:25:39;;;;;;;12.60;6.35;;;21.70;99.90;;;;;;5032533;28;20101;-72
2023/09/19 05:28:07;;;;;;;16.83;6.47;;;21.60;99.90;;;;;;5031775;28;20449;-72
2023/09/19 05:30:35;;;;;;;13.50;6.95;;;21.60;99.90;;;;;;5048876;28;20029;-73
2023/09/19 05:33:02;;;;;;;13.57;6.93;;;21.70;99.90;;;;;;5041316;28;20025;-72
2023/09/19 05:35:28;;;;;;;13.52;6.63;;;21.70;99.90;;;;;;5052312;28;20028;-73
2023/09/19 05:37:55;;;;;;;12.65;7.05;;;21.90;99.90;;;;;;5046951;28;20028;-72
2023/09/19 05:40:21;;;;;;;13.82;6.78;;;21.90;99.90;;;;;;5052490;28;20245;-72
2023/09/19 05:42:47;;;;;;;10.95;6.35;;;22.00;99.90;;;;;;5048084;28;20590;-72
2023/09/19 05:45:14;;;;;;;11.68;5.50;;;22.20;99.90;;;;;;5032882;28;20052;-72
2023/09/19 05:47:41;;;;;;;9.50;5.90;;;22.00;99.90;;;;;;5032539;28;20104;-72
2023/09/19 05:50:10;;;;;;;10.85;5.85;;;22.10;99.90;;;;;;5032722;28;20029;-72
2023/09/19 05:52:37;;;;;;;11.00;6.53;;;22.20;99.90;;;;;;5032593;28;20040;-74
2023/09/19 05:55:06;;;;;;;11.45;6.03;;;22.20;99.90;;;;;;5042009;28;20071;-73
2023/09/19 05:57:33;;;;;;;13.52;6.40;;;22.20;99.90;;;;;;5052300;28;20016;-74
2023/09/19 05:59:59;;;;;;;16.15;6.63;;;22.20;99.90;;;;;;5052190;28;20108;-73
2023/09/19 06:02:29;;;;;;;11.05;6.65;;;22.20;99.90;;;;;;5051563;28;20100;-73
2023/09/19 06:04:56;;;;;;;10.80;6.35;;;22.30;99.90;;;;;;5052317;28;20472;-71
2023/09/19 06:07:25;;;;;;;18.05;6.78;;;22.30;99.90;;;;;;5052437;28;20024;-73
2023/09/19 06:09:55;;;;;;;15.77;6.38;;;22.40;99.90;;;;;;5052231;28;20020;-73
2023/09/19 06:12:21;;;;;;;13.43;6.72;;;22.60;99.90;;;;;;5051983;28;20029;-73
2023/09/19 06:14:48;;;;;;;13.40;6.72;;;22.80;99.90;;;;;;5051605;28;20048;-73
2023/09/19 06:17:14;;;;;;;9.45;5.82;;;22.70;99.90;;;;;;5051656;28;20082;-72
2023/09/19 06:19:41;;;;;;;9.82;5.70;;;22.80;99.90;;;;;;5051911;28;20021;-73
2023/09/19 06:22:07;;;;;;;13.48;6.10;;;22.90;99.90;;;;;;5051087;28;20388;-73
2023/09/19 06:24:33;;;;;;;10.13;6.57;;;22.90;99.90;;;;;;5051981;28;20068;-72
2023/09/19 06:27:01;;;;;;;12.27;6.22;;;23.10;99.90;;;;;;5051910;28;20060;-73
2023/09/19 06:29:26;;;;;;;10.15;6.30;;;23.30;99.90;;;;;;5051508;28;20021;-72
2023/09/19 06:31:52;;;;;;;12.63;5.97;;;23.50;99.90;;;;;;5052172;28;20074;-72
2023/09/19 06:34:18;;;;;;;10.55;6.80;;;23.60;99.90;;;;;;5051886;28;20401;-72
2023/09/19 06:36:45;;;;;;;9.13;5.63;;;23.90;99.90;;;;;;5052039;28;20064;-72
2023/09/19 06:39:11;;;;;;;10.80;5.90;;;24.10;99.90;;;;;;5051051;28;20389;-72
2023/09/19 06:41:41;;;;;;;12.05;6.30;;;24.20;99.90;;;;;;5051670;28;20040;-72
2023/09/19 06:44:10;;;;;;;13.55;6.25;;;24.40;99.90;;;;;;5017504;28;20057;-72
2023/09/19 06:46:39;;;;;;;14.70;6.53;;;24.50;99.90;;;;;;5044879;28;20025;-72
2023/09/19 06:49:06;;;;;;;11.18;6.78;;;24.50;99.90;;;;;;5051576;28;20108;-73
2023/09/19 06:51:34;;;;;;;13.23;6.57;;;24.70;99.90;;;;;;5051341;28;20441;-72
2023/09/19 06:54:01;;;;;;;13.20;6.57;;;24.80;99.90;;;;;;5051669;28;20036;-73
2023/09/19 06:56:27;;;;;;;15.82;7.20;;;24.90;99.90;;;;;;5051336;28;20060;-72
2023/09/19 06:58:53;;;;;;;12.25;6.70;;;25.10;99.90;;;;;;5051827;28;20072;-72
2023/09/19 07:01:20;;;;;;;16.38;6.55;;;;;;;;;;5051111;28;20025;-72
2023/09/19 07:03:46;;;;;;;12.90;7.30;;;25.40;99.90;;;;;;5051527;28;20045;-72
2023/09/19 07:06:11;;;;;;;16.55;7.65;;;25.20;99.90;;;;;;5050891;28;20021;-72
2023/09/19 07:08:38;;;;;;;16.40;7.43;;;25.40;99.90;;;;;;5051732;28;20029;-74
2023/09/19 07:11:06;;;;;;;14.73;7.60;;;25.50;99.90;;;;;;5051252;28;20017;-72
2023/09/19 07:13:32;;;;;;;17.30;7.63;;;;;;;;;;5051690;28;20037;-72
2023/09/19 07:16:01;;;;;;;16.80;7.82;;;25.90;99.90;;;;;;5050896;28;20029;-72
2023/09/19 07:18:27;;;;;;;21.30;8.02;;;26.20;99.90;;;;;;5051094;28;20086;-72
2023/09/19 07:21:00;;;;;;;18.10;7.65;;;26.30;98.60;;;;;;5051588;28;20025;-72
2023/09/19 07:23:27;;;;;;;18.25;8.32;;;26.50;98.50;;;;;;5050147;28;20072;-72
2023/09/19 07:25:58;;;;;;;14.88;8.02;;;;;;;;;;5053090;28;20366;-73
2023/09/19 07:28:24;;;;;;;17.83;8.07;;;;;;;;;;5055151;28;20385;-72
2023/09/19 07:30:51;;;;;;;14.90;7.07;;;;;;;;;;5055344;28;20112;-73
2023/09/19 07:33:16;;;;;;;14.70;7.35;;;27.20;96.90;;;;;;5055764;28;20033;-74
2023/09/19 07:35:48;;;;;;;15.18;7.97;;;27.30;96.30;;;;;;5054839;28;20491;-73
2023/09/19 07:38:14;;;;;;;18.02;8.65;;;27.00;95.70;;;;;;5055141;28;20040;-73
2023/09/19 07:40:40;;;;;;;16.50;8.10;;;26.90;95.70;;;;;;5054296;28;20017;-73
2023/09/19 07:43:06;;;;;;;15.88;7.57;;;;;;;;;;5054697;28;20404;-72
2023/09/19 07:45:32;;;;;;;19.15;7.00;;;27.20;96.60;;;;;;5054622;28;20087;-72
2023/09/19 07:48:01;;;;;;;16.95;7.10;;;27.70;99.90;;;;;;5055175;28;20432;-72
2023/09/19 07:50:28;;;;;;;13.38;7.35;;;27.90;95.40;;;;;;5054913;28;20086;-72
2023/09/19 07:52:55;;;;;;;15.43;7.55;;;28.10;97.00;;;;;;5054703;28;20491;-73
2023/09/19 07:55:25;;;;;;;15.85;7.97;;;28.20;95.20;;;;;;5054590;28;20021;-73
2023/09/19 07:57:52;;;;;;;22.52;7.40;;;28.50;93.00;;;;;;5054465;28;20024;-72
2023/09/19 08:00:18;;;;;;;14.70;7.18;;;28.70;92.80;;;;;;5053134;28;20048;-72
2023/09/19 08:02:44;;;;;;;13.32;7.55;;;28.80;92.90;;;;;;5054433;28;20488;-73
2023/09/19 08:05:11;;;;;;;15.32;7.65;;;28.80;92.20;;;;;;5054784;28;20033;-72
2023/09/19 08:07:39;;;;;;;16.35;8.32;;;29.00;92.70;;;;;;5053740;28;20461;-72
2023/09/19 08:10:11;;;;;;;13.73;6.78;;;29.40;97.30;;;;;;5054208;28;20029;-73
2023/09/19 08:12:37;;;;;;;14.25;7.72;;;29.30;91.70;;;;;;5054187;28;20029;-74
2023/09/19 08:15:05;;;;;;;12.02;7.47;;;29.40;92.80;;;;;;5054408;28;20028;-72
2023/09/19 08:17:34;;;;;;;13.95;7.60;;;;;;;;;;5054117;28;20388;-72
2023/09/19 08:20:03;;;;;;;13.15;7.53;;;;;;;;;;5054287;28;20075;-72
2023/09/19 08:22:29;;;;;;;14.32;8.65;;;29.20;99.70;;;;;;5054089;28;20048;-72
2023/09/19 08:24:56;;;;;;;15.13;7.78;;;;;;;;;;5053579;28;20392;-72
2023/09/19 08:27:26;;;;;;;15.23;8.10;;;29.30;96.60;;;;;;5053902;28;20136;-73
2023/09/19 08:29:53;;;;;;;15.40;7.45;;;29.20;90.20;;;;;;5053636;28;20053;-73
2023/09/19 08:32:23;;;;;;;16.30;6.70;;;29.20;90.90;;;;;;5053667;28;20170;-73
2023/09/19 08:34:50;;;;;;;17.50;7.82;;;29.30;90.10;;;;;;5053942;28;20071;-72
2023/09/19 08:37:18;;;;;;;14.27;7.38;;;29.40;89.70;;;;;;5053231;28;20051;-72
2023/09/19 08:39:44;;;;;;;23.48;9.05;;;29.40;88.70;;;;;;5053802;28;20098;-72
2023/09/19 08:42:16;;;;;;;16.95;7.15;;;;;;;;;;5053057;28;20055;-72
2023/09/19 08:44:43;;;;;;;15.07;7.45;;;29.50;87.60;;;;;;5053643;28;20040;-72
2023/09/19 08:47:11;;;;;;;13.70;7.05;;;29.50;88.70;;;;;;5053213;28;20032;-72
2023/09/19 08:49:45;;;;;;;12.60;7.40;;;;;;;;;;5053330;28;20056;-73
2023/09/19 08:52:15;;;;;;;14.75;7.85;;;;;;;;;;5053520;28;20047;-72
2023/09/19 08:54:43;;;;;;;16.77;8.15;;;;;;;;;;5052045;28;20036;-74
2023/09/19 08:57:11;;;;;;;18.80;8.13;;;29.90;88.00;;;;;;5027909;28;20025;-73
2023/09/19 08:59:41;;;;;;;17.25;8.65;;;30.00;88.70;;;;;;5053011;28;20079;-72
2023/09/19 09:02:12;;;;;;;12.48;7.53;;;29.70;87.10;;;;;;5053627;28;20472;-72
2023/09/19 09:04:42;;;;;;;16.17;8.20;;;29.70;87.40;;;;;;5052383;28;20056;-72
2023/09/19 09:07:12;;;;;;;20.05;8.50;;;29.80;87.50;;;;;;5051850;28;20534;-72
2023/09/19 09:09:42;;;;;;;18.45;8.43;;;29.80;89.70;;;;;;5053097;28;20028;-72
2023/09/19 09:12:15;;;;;;;15.05;7.72;;;;;;;;;;5052771;28;20104;-72
2023/09/19 09:14:52;;;;;;;16.35;8.30;;;;;;;;;;5053099;28;20491;-72
2023/09/19 09:17:21;;;;;;;16.55;7.15;;;30.20;98.30;;;;;;5053072;28;20021;-73
2023/09/19 09:19:47;;;;;;;12.82;7.07;;;30.40;95.30;;;;;;5052394;28;20047;-72
2023/09/19 09:22:13;;;;;;;16.35;7.97;;;30.30;87.70;;;;;;5053139;28;20021;-72
2023/09/19 09:24:53;;;;;;;20.10;8.73;;;30.50;87.00;;;;;;5052467;28;20029;-73
2023/09/19 09:27:20;;;;;;;17.90;6.97;;;30.40;86.10;;;;;;5052467;28;20395;-73
2023/09/19 09:29:51;;;;;;;19.42;7.30;;;30.60;89.00;;;;;;5052559;28;20076;-72
2023/09/19 09:32:19;;;;;;;13.65;7.38;;;30.70;87.80;;;;;;5052339;28;20516;-73
2023/09/19 09:34:50;;;;;;;22.15;6.90;;;30.70;86.50;;;;;;5053092;28;20057;-72
2023/09/19 09:37:20;;;;;;;19.73;7.40;;;30.40;86.80;;;;;;5052127;28;20029;-73
2023/09/19 09:40:38;;;;;;;16.30;7.80;;;30.50;89.10;;;;;;5052892;28;20526;-73
2023/09/19 09:42:39;;;;;;;20.05;6.65;;;;;;;;;;5048900;28;20029;-72
2023/09/19 09:48:03;;;;;;;18.88;7.85;;;31.00;86.10;;;;;;5031857;28;20079;-72
2023/09/19 09:50:51;;;;;;;16.73;7.50;;;30.80;85.50;;;;;;5032747;28;20374;-72
2023/09/19 09:53:33;;;;;;;15.98;7.63;;;;;;;;;;5021943;28;20033;-74
2023/09/19 09:56:00;;;;;;;17.83;6.97;;;30.90;81.00;;;;;;5048739;28;20028;-72
2023/09/19 09:58:29;;;;;;;19.70;6.90;;;30.90;80.80;;;;;;5052671;28;20024;-72
2023/09/19 10:01:01;;;;;;;19.05;6.35;;;31.00;81.20;;;;;;5051829;28;20107;-72
2023/09/19 10:03:43;;;;;;;23.60;6.30;;;30.80;79.60;;;;;;5052295;28;20546;-72
2023/09/19 10:06:27;;;;;;;17.30;6.53;;;30.80;77.50;;;;;;5026992;28;20112;-73
2023/09/19 10:09:11;;;;;;;16.02;6.78;;;30.70;78.70;;;;;;5051811;28;20028;-72
2023/09/19 10:11:45;;;;;;;20.27;7.03;;;30.50;80.20;;;;;;5051620;28;20060;-71
2023/09/19 10:14:24;;;;;;;17.33;7.95;;;30.60;80.00;;;;;;5052109;28;20486;-72
2023/09/19 10:16:53;;;;;;;20.52;8.48;;;30.60;80.90;;;;;;5051464;28;20033;-72
2023/09/19 10:19:57;;;;;;;19.58;6.82;;;30.90;80.30;;;;;;5051943;28;20021;-72
2023/09/19 10:22:26;;;;;;;15.63;6.82;;;31.00;80.30;;;;;;5051580;28;20025;-72
2023/09/19 10:24:53;;;;;;;18.00;7.13;;;31.20;90.00;;;;;;5050349;28;20447;-72
2023/09/19 10:27:20;;;;;;;16.45;7.53;;;31.00;86.20;;;;;;5051159;28;20110;-72
2023/09/19 10:29:50;;;;;;;15.32;6.50;;;30.70;87.10;;;;;;5052132;28;20021;-72
2023/09/19 10:32:19;;;;;;;20.05;8.23;;;30.50;86.10;;;;;;5050832;28;20036;-73
2023/09/19 10:34:47;;;;;;;18.33;7.18;;;30.30;89.10;;;;;;5052007;28;20039;-71
2023/09/19 10:37:16;;;;;;;17.30;7.53;;;30.00;90.80;;;;;;5051216;28;20122;-73
2023/09/19 10:39:46;;;;;;;24.50;8.40;;;29.70;90.60;;;;;;5051967;28;20033;-72
2023/09/19 10:42:18;;;;;;;23.45;8.88;;;29.40;90.60;;;;;;5050507;28;20452;-72
2023/09/19 10:44:47;;;;;;;25.02;9.52;;;29.10;92.00;;;;;;5051735;28;20041;-72
2023/09/19 10:47:14;;;;;;;26.48;9.38;;;29.10;93.00;;;;;;5051725;28;20017;-72
2023/09/19 10:49:46;;;;;;;19.95;9.68;;;;;;;;;;5051707;28;20430;-72
2023/09/19 10:52:19;;;;;;;31.73;9.88;;;28.20;97.10;;;;;;5051273;28;20031;-72
2023/09/19 10:54:52;;;;;;;22.98;9.02;;;28.00;99.90;;;;;;5051565;28;20025;-72
2023/09/19 10:57:27;;;;;;;25.95;8.30;;;28.00;99.90;;;;;;5051390;28;20091;-72
2023/09/19 11:03:07;;;;;;;24.80;8.10;;;;;;;;;;5055745;28;20025;-74
2023/09/19 11:05:33;;;;;;;17.88;8.25;;;27.70;99.90;;;;;;5055295;28;20035;-72
2023/09/19 11:08:04;;;;;;;24.73;9.02;;;;;;;;;;5055239;28;20064;-72
2023/09/19 11:10:50;;;;;;;21.45;9.38;;;27.70;99.90;;;;;;5055428;28;20025;-72
2023/09/19 11:13:34;;;;;;;25.55;9.25;;;27.90;99.90;;;;;;5055524;28;20036;-72
2023/09/19 11:16:00;;;;;;;28.65;8.45;;;28.00;99.90;;;;;;5054948;28;20465;-73
2023/09/19 11:18:41;;;;;;;21.73;8.23;;;28.00;99.90;;;;;;5055332;28;20040;-72
2023/09/19 11:21:32;;;;;;;22.33;7.75;;;28.20;99.90;;;;;;5055264;28;20507;-71
2023/09/19 11:24:25;;;;;;;21.98;8.10;;;28.40;99.90;;;;;;5055074;28;20091;-72
2023/09/19 11:26:52;;;;;;;19.23;7.18;;;28.50;99.90;;;;;;5055343;28;20059;-72
2023/09/19 11:29:29;;;;;;;20.00;8.57;;;28.50;99.90;;;;;;5054407;28;20456;-72
2023/09/19 11:32:01;;;;;;;29.83;9.27;;;28.80;99.60;;;;;;5054833;28;20087;-72
2023/09/19 11:34:36;;;;;;;25.98;8.32;;;28.90;99.90;;;;;;5054871;28;20545;-72
2023/09/19 11:37:04;;;;;;;21.52;7.85;;;29.20;99.20;;;;;;5054960;28;20029;-73
2023/09/19 11:39:30;;;;;;;29.00;9.55;;;29.30;98.30;;;;;;5055244;28;20048;-72
2023/09/19 11:41:56;;;;;;;22.88;7.15;;;29.30;97.20;;;;;;5053974;28;20091;-72
2023/09/19 11:44:34;;;;;;;21.55;6.40;;;29.10;96.20;;;;;;5053403;28;20049;-72
2023/09/19 11:47:03;;;;;;;22.23;7.93;;;28.90;93.10;;;;;;5054528;28;20029;-73
2023/09/19 11:49:31;;;;;;;18.70;6.82;;;28.80;94.60;;;;;;5054359;28;20415;-72
2023/09/19 11:52:00;;;;;;;21.48;7.43;;;29.00;95.30;;;;;;5054517;28;20495;-72
2023/09/19 11:54:31;;;;;;;23.25;7.20;;;29.10;92.50;;;;;;5054723;28;20060;-72
2023/09/19 11:56:58;;;;;;;24.38;7.13;;;29.20;91.30;;;;;;5054228;28;20021;-72
2023/09/19 11:59:28;;;;;;;33.63;8.60;;;29.30;92.40;;;;;;5054308;28;20372;-72
2023/09/19 12:02:00;;;;;;;16.60;6.60;;;29.50;92.10;;;;;;5054177;28;20374;-72
2023/09/19 12:04:48;;;;;;;20.02;5.63;;;29.40;88.30;;;;;;5054464;28;20055;-72
2023/09/19 12:07:15;;;;;;;17.05;6.13;;;29.20;88.50;;;;;;5052978;28;20090;-72
2023/09/19 12:09:43;;;;;;;12.80;5.15;;;29.00;90.70;;;;;;5054118;28;20029;-72
2023/09/19 12:12:16;;;;;;;17.38;5.00;;;28.90;90.70;;;;;;5053683;28;20373;-73
2023/09/19 12:14:50;;;;;;;44.70;7.82;;;28.80;90.30;;;;;;5053405;28;20349;-72
2023/09/19 12:17:24;;;;;;;45.20;8.40;;;28.60;90.00;;;;;;5054288;28;20081;-72
2023/09/19 12:19:55;;;;;;;20.02;5.57;;;28.60;90.00;;;;;;5053919;28;20075;-72
2023/09/19 12:22:21;;;;;;;34.28;5.20;;;28.60;90.30;;;;;;5053909;28;20063;-72
2023/09/19 12:24:48;;;;;;;12.25;4.30;;;28.60;89.60;;;;;;5054421;28;20060;-71
2023/09/19 12:27:14;;;;;;;12.13;4.13;;;28.80;90.10;;;;;;5053765;28;20021;-72
2023/09/19 12:29:59;;;;;;;18.55;4.68;;;28.90;90.30;;;;;;5054247;28;20523;-71
2023/09/19 12:32:44;;;;;;;24.25;4.47;;;28.90;88.30;;;;;;5053844;28;20384;-72
2023/09/19 12:35:11;;;;;;;14.30;3.30;;;28.90;86.80;;;;;;5053695;28;20037;-72
2023/09/19 12:37:37;;;;;;;15.05;4.10;;;28.80;88.20;;;;;;5054134;28;20484;-72
2023/09/19 12:40:17;;;;;;;19.52;5.05;;;28.60;87.90;;;;;;5054077;28;20056;-72
2023/09/19 12:42:47;;;;;;;19.55;5.63;;;28.50;87.20;;;;;;5053605;28;20049;-73
2023/09/19 12:45:15;;;;;;;12.57;4.07;;;28.40;87.20;;;;;;5052070;28;20124;-72
2023/09/19 12:48:33;;;;;;;16.77;4.18;;;28.40;88.00;;;;;;5053164;28;20086;-72
2023/09/19 12:51:12;;;;;;;11.00;4.07;;;28.30;87.50;;;;;;5053329;28;20476;-71
2023/09/19 12:53:42;;;;;;;19.23;4.85;;;28.10;89.40;;;;;;5053491;28;20025;-72
2023/09/19 12:56:13;;;;;;;11.50;4.97;;;28.10;88.60;;;;;;5053819;28;20377;-72
2023/09/19 12:59:00;;;;;;;16.02;5.00;;;28.00;89.60;;;;;;5052891;28;20032;-72
2023/09/19 13:01:27;;;;;;;11.10;4.05;;;28.00;88.00;;;;;;5053158;28;20033;-72
2023/09/19 13:04:19;;;;;;;11.10;4.28;;;28.00;86.30;;;;;;5053964;28;20036;-72